sensor_id;sensor_type;location;lat;lon;timestamp;P1;durP1;ratioP1;P2;durP2;ratioP2
43337;SDS011;28933;52.492;13.434;2022-09-03T00:01:37;3.78;;;1.48;;
43337;SDS011;28933;52.492;13.434;2022-09-03T00:04:15;2.63;;;1.50;;
43337;SDS011;28933;52.492;13.434;2022-09-03T00:06:50;2.72;;;1.30;;
43337;SDS011;28933;52.492;13.434;2022-09-03T00:09:24;3.83;;;1.30;;
43337;SDS011;28933;52.492;13.434;2022-09-03T00:12:17;2.60;;;1.33;;
43337;SDS011;28933;52.492;13.434;2022-09-03T00:14:48;1.98;;;1.50;;
43337;SDS011;28933;52.492;13.434;2022-09-03T00:17:31;3.60;;;1.50;;
43337;SDS011;28933;52.492;13.434;2022-09-03T00:20:05;4.60;;;1.75;;
43337;SDS011;28933;52.492;13.434;2022-09-03T00:22:44;3.20;;;1.80;;
43337;SDS011;28933;52.492;13.434;2022-09-03T00:25:14;3.33;;;1.42;;
43337;SDS011;28933;52.492;13.434;2022-09-03T00:27:46;2.67;;;1.70;;
43337;SDS011;28933;52.492;13.434;2022-09-03T00:30:15;2.17;;;1.27;;
43337;SDS011;28933;52.492;13.434;2022-09-03T00:35:17;6.05;;;1.92;;
43337;SDS011;28933;52.492;13.434;2022-09-03T00:37:52;3.78;;;1.80;;
43337;SDS011;28933;52.492;13.434;2022-09-03T00:40:30;2.72;;;1.33;;
43337;SDS011;28933;52.492;13.434;2022-09-03T00:42:59;3.90;;;2.03;;
43337;SDS011;28933;52.492;13.434;2022-09-03T00:53:35;3.45;;;1.67;;
43337;SDS011;28933;52.492;13.434;2022-09-03T00:56:21;2.95;;;1.50;;
43337;SDS011;28933;52.492;13.434;2022-09-03T01:01:35;2.55;;;1.48;;
43337;SDS011;28933;52.492;13.434;2022-09-03T01:09:39;2.72;;;1.75;;
43337;SDS011;28933;52.492;13.434;2022-09-03T01:26:54;3.35;;;1.65;;
43337;SDS011;28933;52.492;13.434;2022-09-03T01:29:35;2.60;;;1.70;;
43337;SDS011;28933;52.492;13.434;2022-09-03T01:32:18;2.75;;;1.50;;
43337;SDS011;28933;52.492;13.434;2022-09-03T01:46:07;3.20;;;1.37;;
43337;SDS011;28933;52.492;13.434;2022-09-03T01:48:46;1.95;;;1.40;;
43337;SDS011;28933;52.492;13.434;2022-09-03T01:51:35;3.00;;;1.60;;
43337;SDS011;28933;52.492;13.434;2022-09-03T01:54:11;2.70;;;1.50;;
43337;SDS011;28933;52.492;13.434;2022-09-03T01:57:18;3.95;;;1.70;;
43337;SDS011;28933;52.492;13.434;2022-09-03T02:00:13;3.22;;;1.50;;
43337;SDS011;28933;52.492;13.434;2022-09-03T02:02:45;2.75;;;1.30;;
43337;SDS011;28933;52.492;13.434;2022-09-03T02:05:27;3.58;;;1.50;;
43337;SDS011;28933;52.492;13.434;2022-09-03T02:07:55;4.05;;;1.55;;
43337;SDS011;28933;52.492;13.434;2022-09-03T02:13:04;3.08;;;1.75;;
43337;SDS011;28933;52.492;13.434;2022-09-03T02:15:36;1.83;;;1.35;;
43337;SDS011;28933;52.492;13.434;2022-09-03T02:18:05;2.70;;;1.52;;
43337;SDS011;28933;52.492;13.434;2022-09-03T02:20:38;2.22;;;1.40;;
43337;SDS011;28933;52.492;13.434;2022-09-03T02:23:04;2.33;;;1.60;;
43337;SDS011;28933;52.492;13.434;2022-09-03T02:25:37;2.88;;;1.50;;
43337;SDS011;28933;52.492;13.434;2022-09-03T02:28:06;3.13;;;1.60;;
43337;SDS011;28933;52.492;13.434;2022-09-03T02:30:33;3.85;;;1.55;;
43337;SDS011;28933;52.492;13.434;2022-09-03T02:32:59;5.70;;;1.73;;
43337;SDS011;28933;52.492;13.434;2022-09-03T02:35:25;6.15;;;2.00;;
43337;SDS011;28933;52.492;13.434;2022-09-03T02:37:50;2.65;;;1.40;;
43337;SDS011;28933;52.492;13.434;2022-09-03T02:40:16;4.13;;;1.50;;
43337;SDS011;28933;52.492;13.434;2022-09-03T02:42:43;3.17;;;1.60;;
43337;SDS011;28933;52.492;13.434;2022-09-03T02:45:23;2.83;;;1.60;;
43337;SDS011;28933;52.492;13.434;2022-09-03T02:47:55;3.50;;;1.50;;
43337;SDS011;28933;52.492;13.434;2022-09-03T02:50:24;2.90;;;1.88;;
43337;SDS011;28933;52.492;13.434;2022-09-03T02:52:50;2.78;;;1.70;;
43337;SDS011;28933;52.492;13.434;2022-09-03T02:55:16;2.95;;;1.60;;
43337;SDS011;28933;52.492;13.434;2022-09-03T02:57:43;2.65;;;1.98;;
43337;SDS011;28933;52.492;13.434;2022-09-03T03:00:09;3.42;;;1.65;;
43337;SDS011;28933;52.492;13.434;2022-09-03T03:02:35;3.17;;;1.55;;
43337;SDS011;28933;52.492;13.434;2022-09-03T03:05:01;2.67;;;1.50;;
43337;SDS011;28933;52.492;13.434;2022-09-03T03:07:29;3.55;;;1.60;;
43337;SDS011;28933;52.492;13.434;2022-09-03T03:09:58;4.70;;;1.55;;
43337;SDS011;28933;52.492;13.434;2022-09-03T03:12:23;2.75;;;1.75;;
43337;SDS011;28933;52.492;13.434;2022-09-03T03:14:50;2.55;;;1.50;;
43337;SDS011;28933;52.492;13.434;2022-09-03T03:17:15;2.97;;;1.40;;
43337;SDS011;28933;52.492;13.434;2022-09-03T03:19:41;3.65;;;1.80;;
43337;SDS011;28933;52.492;13.434;2022-09-03T03:22:07;2.50;;;1.73;;
43337;SDS011;28933;52.492;13.434;2022-09-03T03:24:32;2.78;;;1.30;;
43337;SDS011;28933;52.492;13.434;2022-09-03T03:26:58;3.03;;;1.80;;
43337;SDS011;28933;52.492;13.434;2022-09-03T03:29:23;2.45;;;1.60;;
43337;SDS011;28933;52.492;13.434;2022-09-03T03:31:49;5.00;;;1.52;;
43337;SDS011;28933;52.492;13.434;2022-09-03T03:34:16;3.13;;;1.48;;
43337;SDS011;28933;52.492;13.434;2022-09-03T03:36:41;2.58;;;1.67;;
43337;SDS011;28933;52.492;13.434;2022-09-03T03:39:07;4.28;;;1.70;;
43337;SDS011;28933;52.492;13.434;2022-09-03T03:41:34;4.30;;;1.70;;
43337;SDS011;28933;52.492;13.434;2022-09-03T03:44:01;2.47;;;1.50;;
43337;SDS011;28933;52.492;13.434;2022-09-03T03:46:33;4.45;;;1.70;;
43337;SDS011;28933;52.492;13.434;2022-09-03T03:49:00;3.05;;;1.77;;
43337;SDS011;28933;52.492;13.434;2022-09-03T03:51:26;2.80;;;1.73;;
43337;SDS011;28933;52.492;13.434;2022-09-03T03:53:53;2.85;;;1.80;;
43337;SDS011;28933;52.492;13.434;2022-09-03T03:56:20;2.30;;;1.50;;
43337;SDS011;28933;52.492;13.434;2022-09-03T03:58:48;6.00;;;1.90;;
43337;SDS011;28933;52.492;13.434;2022-09-03T04:01:24;2.40;;;1.85;;
43337;SDS011;28933;52.492;13.434;2022-09-03T04:03:50;3.22;;;1.70;;
43337;SDS011;28933;52.492;13.434;2022-09-03T04:06:18;4.82;;;1.70;;
43337;SDS011;28933;52.492;13.434;2022-09-03T04:08:45;3.03;;;1.77;;
43337;SDS011;28933;52.492;13.434;2022-09-03T04:11:14;3.10;;;1.80;;
43337;SDS011;28933;52.492;13.434;2022-09-03T04:13:44;4.13;;;1.50;;
43337;SDS011;28933;52.492;13.434;2022-09-03T04:18:38;2.72;;;1.98;;
43337;SDS011;28933;52.492;13.434;2022-09-03T04:21:05;4.10;;;1.65;;
43337;SDS011;28933;52.492;13.434;2022-09-03T04:23:36;2.47;;;1.70;;
43337;SDS011;28933;52.492;13.434;2022-09-03T04:26:04;4.45;;;2.08;;
43337;SDS011;28933;52.492;13.434;2022-09-03T04:28:30;4.60;;;1.90;;
43337;SDS011;28933;52.492;13.434;2022-09-03T04:31:03;3.15;;;1.70;;
43337;SDS011;28933;52.492;13.434;2022-09-03T04:33:31;3.47;;;1.93;;
43337;SDS011;28933;52.492;13.434;2022-09-03T04:38:32;2.17;;;1.65;;
43337;SDS011;28933;52.492;13.434;2022-09-03T04:40:59;3.08;;;1.88;;
43337;SDS011;28933;52.492;13.434;2022-09-03T04:43:25;4.35;;;1.95;;
43337;SDS011;28933;52.492;13.434;2022-09-03T04:45:56;3.10;;;2.05;;
43337;SDS011;28933;52.492;13.434;2022-09-03T04:48:26;3.88;;;1.95;;
43337;SDS011;28933;52.492;13.434;2022-09-03T04:50:53;3.13;;;1.80;;
43337;SDS011;28933;52.492;13.434;2022-09-03T04:53:19;3.20;;;2.00;;
43337;SDS011;28933;52.492;13.434;2022-09-03T04:55:47;3.75;;;2.17;;
43337;SDS011;28933;52.492;13.434;2022-09-03T04:58:12;3.78;;;2.00;;
43337;SDS011;28933;52.492;13.434;2022-09-03T05:00:38;3.83;;;2.10;;
43337;SDS011;28933;52.492;13.434;2022-09-03T05:03:04;4.45;;;2.08;;
43337;SDS011;28933;52.492;13.434;2022-09-03T05:05:30;3.38;;;1.98;;
43337;SDS011;28933;52.492;13.434;2022-09-03T05:07:57;3.40;;;2.05;;
43337;SDS011;28933;52.492;13.434;2022-09-03T05:10:25;4.55;;;2.92;;
43337;SDS011;28933;52.492;13.434;2022-09-03T05:13:01;4.15;;;2.15;;
43337;SDS011;28933;52.492;13.434;2022-09-03T05:15:29;3.00;;;1.88;;
43337;SDS011;28933;52.492;13.434;2022-09-03T05:17:57;3.15;;;1.85;;
43337;SDS011;28933;52.492;13.434;2022-09-03T05:20:25;3.05;;;2.03;;
43337;SDS011;28933;52.492;13.434;2022-09-03T05:22:51;3.88;;;2.28;;
43337;SDS011;28933;52.492;13.434;2022-09-03T05:25:17;2.90;;;2.20;;
43337;SDS011;28933;52.492;13.434;2022-09-03T05:27:43;4.93;;;2.13;;
43337;SDS011;28933;52.492;13.434;2022-09-03T05:30:08;2.90;;;2.15;;
43337;SDS011;28933;52.492;13.434;2022-09-03T05:32:34;4.10;;;2.17;;
43337;SDS011;28933;52.492;13.434;2022-09-03T05:35:00;3.13;;;2.10;;
43337;SDS011;28933;52.492;13.434;2022-09-03T05:37:26;2.97;;;2.00;;
43337;SDS011;28933;52.492;13.434;2022-09-03T05:39:51;5.72;;;1.85;;
43337;SDS011;28933;52.492;13.434;2022-09-03T05:42:17;2.97;;;1.92;;
43337;SDS011;28933;52.492;13.434;2022-09-03T05:44:44;5.78;;;2.15;;
43337;SDS011;28933;52.492;13.434;2022-09-03T05:47:09;3.72;;;2.25;;
43337;SDS011;28933;52.492;13.434;2022-09-03T05:49:35;4.75;;;1.85;;
43337;SDS011;28933;52.492;13.434;2022-09-03T05:52:01;6.85;;;2.30;;
43337;SDS011;28933;52.492;13.434;2022-09-03T05:54:27;5.28;;;2.15;;
43337;SDS011;28933;52.492;13.434;2022-09-03T05:56:52;3.03;;;1.98;;
43337;SDS011;28933;52.492;13.434;2022-09-03T05:59:19;4.47;;;2.33;;
43337;SDS011;28933;52.492;13.434;2022-09-03T06:01:44;3.38;;;2.15;;
43337;SDS011;28933;52.492;13.434;2022-09-03T06:04:11;5.60;;;1.80;;
43337;SDS011;28933;52.492;13.434;2022-09-03T06:06:39;3.28;;;1.90;;
43337;SDS011;28933;52.492;13.434;2022-09-03T06:09:07;4.65;;;2.20;;
43337;SDS011;28933;52.492;13.434;2022-09-03T06:11:38;3.08;;;1.98;;
43337;SDS011;28933;52.492;13.434;2022-09-03T06:14:07;3.25;;;1.90;;
43337;SDS011;28933;52.492;13.434;2022-09-03T06:16:37;3.45;;;1.92;;
43337;SDS011;28933;52.492;13.434;2022-09-03T06:19:08;5.27;;;2.03;;
43337;SDS011;28933;52.492;13.434;2022-09-03T06:21:38;3.72;;;1.95;;
43337;SDS011;28933;52.492;13.434;2022-09-03T06:24:07;5.05;;;2.40;;
43337;SDS011;28933;52.492;13.434;2022-09-03T06:26:53;3.83;;;1.85;;
43337;SDS011;28933;52.492;13.434;2022-09-03T06:29:22;3.63;;;2.35;;
43337;SDS011;28933;52.492;13.434;2022-09-03T06:31:47;5.18;;;2.20;;
43337;SDS011;28933;52.492;13.434;2022-09-03T06:34:14;3.42;;;2.05;;
43337;SDS011;28933;52.492;13.434;2022-09-03T06:36:42;3.10;;;1.90;;
43337;SDS011;28933;52.492;13.434;2022-09-03T06:39:09;3.20;;;2.25;;
43337;SDS011;28933;52.492;13.434;2022-09-03T06:41:34;4.25;;;2.38;;
43337;SDS011;28933;52.492;13.434;2022-09-03T06:44:04;4.22;;;2.08;;
43337;SDS011;28933;52.492;13.434;2022-09-03T06:46:35;3.33;;;2.00;;
43337;SDS011;28933;52.492;13.434;2022-09-03T06:49:09;3.70;;;2.28;;
43337;SDS011;28933;52.492;13.434;2022-09-03T06:51:35;4.25;;;1.83;;
43337;SDS011;28933;52.492;13.434;2022-09-03T06:54:03;4.35;;;2.35;;
43337;SDS011;28933;52.492;13.434;2022-09-03T06:56:30;4.10;;;2.20;;
43337;SDS011;28933;52.492;13.434;2022-09-03T06:58:57;5.32;;;2.30;;
43337;SDS011;28933;52.492;13.434;2022-09-03T07:01:25;3.53;;;1.90;;
43337;SDS011;28933;52.492;13.434;2022-09-03T07:03:55;3.00;;;2.10;;
43337;SDS011;28933;52.492;13.434;2022-09-03T07:06:26;3.55;;;2.13;;
43337;SDS011;28933;52.492;13.434;2022-09-03T07:08:53;3.63;;;1.92;;
43337;SDS011;28933;52.492;13.434;2022-09-03T07:11:22;3.28;;;1.95;;
43337;SDS011;28933;52.492;13.434;2022-09-03T07:13:51;3.47;;;1.75;;
43337;SDS011;28933;52.492;13.434;2022-09-03T07:16:21;3.03;;;1.73;;
43337;SDS011;28933;52.492;13.434;2022-09-03T07:18:52;3.42;;;1.80;;
43337;SDS011;28933;52.492;13.434;2022-09-03T07:21:22;3.45;;;2.13;;
43337;SDS011;28933;52.492;13.434;2022-09-03T07:23:49;4.10;;;2.05;;
43337;SDS011;28933;52.492;13.434;2022-09-03T07:26:18;2.85;;;1.65;;
43337;SDS011;28933;52.492;13.434;2022-09-03T07:31:21;3.75;;;2.30;;
43337;SDS011;28933;52.492;13.434;2022-09-03T07:33:52;3.28;;;1.85;;
43337;SDS011;28933;52.492;13.434;2022-09-03T07:36:21;5.05;;;2.10;;
43337;SDS011;28933;52.492;13.434;2022-09-03T07:38:48;3.08;;;1.80;;
43337;SDS011;28933;52.492;13.434;2022-09-03T07:41:14;3.13;;;1.70;;
43337;SDS011;28933;52.492;13.434;2022-09-03T07:43:45;2.75;;;1.58;;
43337;SDS011;28933;52.492;13.434;2022-09-03T07:46:15;3.83;;;1.98;;
43337;SDS011;28933;52.492;13.434;2022-09-03T07:48:47;3.85;;;2.05;;
43337;SDS011;28933;52.492;13.434;2022-09-03T07:51:18;4.85;;;2.00;;
43337;SDS011;28933;52.492;13.434;2022-09-03T07:53:46;2.58;;;1.90;;
43337;SDS011;28933;52.492;13.434;2022-09-03T07:56:13;4.32;;;2.75;;
43337;SDS011;28933;52.492;13.434;2022-09-03T07:58:40;5.50;;;1.90;;
43337;SDS011;28933;52.492;13.434;2022-09-03T08:03:34;5.50;;;2.17;;
43337;SDS011;28933;52.492;13.434;2022-09-03T08:06:00;4.45;;;2.08;;
43337;SDS011;28933;52.492;13.434;2022-09-03T08:08:27;4.97;;;2.25;;
43337;SDS011;28933;52.492;13.434;2022-09-03T08:10:53;4.47;;;1.88;;
43337;SDS011;28933;52.492;13.434;2022-09-03T08:13:19;5.97;;;2.17;;
43337;SDS011;28933;52.492;13.434;2022-09-03T08:15:54;3.55;;;2.10;;
43337;SDS011;28933;52.492;13.434;2022-09-03T08:18:21;5.95;;;2.78;;
43337;SDS011;28933;52.492;13.434;2022-09-03T08:20:47;2.83;;;1.70;;
43337;SDS011;28933;52.492;13.434;2022-09-03T08:23:13;4.35;;;1.75;;
43337;SDS011;28933;52.492;13.434;2022-09-03T08:25:39;4.60;;;1.88;;
43337;SDS011;28933;52.492;13.434;2022-09-03T08:28:05;5.40;;;2.00;;
43337;SDS011;28933;52.492;13.434;2022-09-03T08:30:30;2.38;;;1.67;;
43337;SDS011;28933;52.492;13.434;2022-09-03T08:32:56;6.00;;;1.83;;
43337;SDS011;28933;52.492;13.434;2022-09-03T08:35:28;4.95;;;2.05;;
43337;SDS011;28933;52.492;13.434;2022-09-03T08:37:58;2.83;;;1.90;;
43337;SDS011;28933;52.492;13.434;2022-09-03T08:40:30;3.55;;;1.95;;
43337;SDS011;28933;52.492;13.434;2022-09-03T08:43:12;5.03;;;1.98;;
43337;SDS011;28933;52.492;13.434;2022-09-03T08:45:42;3.70;;;1.65;;
43337;SDS011;28933;52.492;13.434;2022-09-03T08:48:11;2.60;;;1.58;;
43337;SDS011;28933;52.492;13.434;2022-09-03T08:50:45;3.30;;;2.17;;
43337;SDS011;28933;52.492;13.434;2022-09-03T08:53:50;3.40;;;1.98;;
43337;SDS011;28933;52.492;13.434;2022-09-03T08:56:26;3.80;;;1.90;;
43337;SDS011;28933;52.492;13.434;2022-09-03T08:58:54;3.15;;;1.77;;
43337;SDS011;28933;52.492;13.434;2022-09-03T09:01:39;2.97;;;1.80;;
43337;SDS011;28933;52.492;13.434;2022-09-03T09:04:38;3.78;;;1.75;;
43337;SDS011;28933;52.492;13.434;2022-09-03T09:07:16;2.92;;;1.73;;
43337;SDS011;28933;52.492;13.434;2022-09-03T09:12:34;3.63;;;1.80;;
43337;SDS011;28933;52.492;13.434;2022-09-03T09:23:33;3.67;;;1.65;;
43337;SDS011;28933;52.492;13.434;2022-09-03T09:26:05;2.70;;;1.70;;
43337;SDS011;28933;52.492;13.434;2022-09-03T09:28:34;3.28;;;1.95;;
43337;SDS011;28933;52.492;13.434;2022-09-03T09:31:02;3.90;;;1.50;;
43337;SDS011;28933;52.492;13.434;2022-09-03T09:33:31;3.15;;;1.75;;
43337;SDS011;28933;52.492;13.434;2022-09-03T09:35:59;3.92;;;1.90;;
43337;SDS011;28933;52.492;13.434;2022-09-03T09:38:33;3.35;;;2.05;;
43337;SDS011;28933;52.492;13.434;2022-09-03T09:41:07;5.40;;;1.70;;
43337;SDS011;28933;52.492;13.434;2022-09-03T09:43:44;5.68;;;2.03;;
43337;SDS011;28933;52.492;13.434;2022-09-03T09:48:53;6.65;;;2.38;;
43337;SDS011;28933;52.492;13.434;2022-09-03T09:51:25;3.55;;;2.00;;
43337;SDS011;28933;52.492;13.434;2022-09-03T09:56:44;2.35;;;1.50;;
43337;SDS011;28933;52.492;13.434;2022-09-03T09:59:12;3.78;;;1.70;;
43337;SDS011;28933;52.492;13.434;2022-09-03T10:01:43;3.60;;;1.60;;
43337;SDS011;28933;52.492;13.434;2022-09-03T10:04:27;2.35;;;1.40;;
43337;SDS011;28933;52.492;13.434;2022-09-03T10:06:56;4.00;;;1.65;;
43337;SDS011;28933;52.492;13.434;2022-09-03T10:09:44;2.47;;;1.40;;
43337;SDS011;28933;52.492;13.434;2022-09-03T10:28:11;2.20;;;1.55;;
43337;SDS011;28933;52.492;13.434;2022-09-03T10:30:41;3.75;;;1.35;;
43337;SDS011;28933;52.492;13.434;2022-09-03T10:33:28;2.83;;;1.30;;
43337;SDS011;28933;52.492;13.434;2022-09-03T10:36:08;4.43;;;1.90;;
43337;SDS011;28933;52.492;13.434;2022-09-03T10:38:41;4.85;;;1.80;;
43337;SDS011;28933;52.492;13.434;2022-09-03T10:41:22;3.17;;;1.50;;
43337;SDS011;28933;52.492;13.434;2022-09-03T10:49:44;2.90;;;1.40;;
43337;SDS011;28933;52.492;13.434;2022-09-03T10:57:55;2.63;;;1.50;;
43337;SDS011;28933;52.492;13.434;2022-09-03T11:00:44;4.05;;;1.52;;
43337;SDS011;28933;52.492;13.434;2022-09-03T11:03:21;3.47;;;1.50;;
43337;SDS011;28933;52.492;13.434;2022-09-03T11:06:34;2.30;;;1.52;;
43337;SDS011;28933;52.492;13.434;2022-09-03T11:11:44;2.28;;;1.48;;
43337;SDS011;28933;52.492;13.434;2022-09-03T11:14:16;4.18;;;1.75;;
43337;SDS011;28933;52.492;13.434;2022-09-03T11:17:08;2.85;;;1.50;;
43337;SDS011;28933;52.492;13.434;2022-09-03T11:19:50;3.17;;;1.70;;
43337;SDS011;28933;52.492;13.434;2022-09-03T11:22:29;2.17;;;1.30;;
43337;SDS011;28933;52.492;13.434;2022-09-03T11:24:56;1.90;;;1.40;;
43337;SDS011;28933;52.492;13.434;2022-09-03T11:30:07;2.65;;;1.67;;
43337;SDS011;28933;52.492;13.434;2022-09-03T11:35:14;2.90;;;1.67;;
43337;SDS011;28933;52.492;13.434;2022-09-03T11:38:01;3.97;;;1.40;;
43337;SDS011;28933;52.492;13.434;2022-09-03T11:40:57;2.95;;;1.50;;
43337;SDS011;28933;52.492;13.434;2022-09-03T11:45:48;2.60;;;1.50;;
43337;SDS011;28933;52.492;13.434;2022-09-03T11:48:18;2.28;;;1.30;;
43337;SDS011;28933;52.492;13.434;2022-09-03T11:53:57;2.75;;;1.52;;
43337;SDS011;28933;52.492;13.434;2022-09-03T11:56:23;1.83;;;1.10;;
43337;SDS011;28933;52.492;13.434;2022-09-03T12:01:27;2.45;;;1.20;;
43337;SDS011;28933;52.492;13.434;2022-09-03T12:03:56;2.65;;;1.63;;
43337;SDS011;28933;52.492;13.434;2022-09-03T12:19:56;2.40;;;1.50;;
43337;SDS011;28933;52.492;13.434;2022-09-03T12:22:24;3.80;;;1.58;;
43337;SDS011;28933;52.492;13.434;2022-09-03T12:24:55;2.65;;;1.50;;
43337;SDS011;28933;52.492;13.434;2022-09-03T12:27:35;2.58;;;1.50;;
43337;SDS011;28933;52.492;13.434;2022-09-03T12:30:02;2.15;;;1.60;;
43337;SDS011;28933;52.492;13.434;2022-09-03T12:32:30;3.17;;;1.60;;
43337;SDS011;28933;52.492;13.434;2022-09-03T12:35:22;2.33;;;1.48;;
43337;SDS011;28933;52.492;13.434;2022-09-03T12:37:50;3.17;;;1.40;;
43337;SDS011;28933;52.492;13.434;2022-09-03T12:40:24;3.67;;;1.50;;
43337;SDS011;28933;52.492;13.434;2022-09-03T12:42:52;3.47;;;1.63;;
43337;SDS011;28933;52.492;13.434;2022-09-03T12:45:19;3.05;;;2.08;;
43337;SDS011;28933;52.492;13.434;2022-09-03T12:47:47;3.50;;;1.48;;
43337;SDS011;28933;52.492;13.434;2022-09-03T12:50:17;2.42;;;1.48;;
43337;SDS011;28933;52.492;13.434;2022-09-03T12:52:45;3.13;;;1.40;;
43337;SDS011;28933;52.492;13.434;2022-09-03T12:58:16;5.25;;;1.70;;
43337;SDS011;28933;52.492;13.434;2022-09-03T13:06:15;2.45;;;1.58;;
43337;SDS011;28933;52.492;13.434;2022-09-03T13:08:49;4.53;;;1.80;;
43337;SDS011;28933;52.492;13.434;2022-09-03T13:11:19;2.17;;;1.30;;
43337;SDS011;28933;52.492;13.434;2022-09-03T13:13:51;2.55;;;1.38;;
43337;SDS011;28933;52.492;13.434;2022-09-03T13:18:54;2.92;;;1.65;;
43337;SDS011;28933;52.492;13.434;2022-09-03T13:27:17;2.83;;;1.45;;
43337;SDS011;28933;52.492;13.434;2022-09-03T13:32:43;3.20;;;1.60;;
43337;SDS011;28933;52.492;13.434;2022-09-03T13:38:04;3.75;;;1.70;;
43337;SDS011;28933;52.492;13.434;2022-09-03T13:43:42;3.22;;;1.45;;
43337;SDS011;28933;52.492;13.434;2022-09-03T13:46:16;2.53;;;1.38;;
43337;SDS011;28933;52.492;13.434;2022-09-03T13:48:47;2.95;;;1.90;;
43337;SDS011;28933;52.492;13.434;2022-09-03T13:51:50;5.00;;;1.67;;
43337;SDS011;28933;52.492;13.434;2022-09-03T13:54:28;2.75;;;1.42;;
43337;SDS011;28933;52.492;13.434;2022-09-03T14:00:00;4.05;;;1.70;;
43337;SDS011;28933;52.492;13.434;2022-09-03T14:05:23;3.05;;;1.58;;
43337;SDS011;28933;52.492;13.434;2022-09-03T14:08:12;3.60;;;1.65;;
43337;SDS011;28933;52.492;13.434;2022-09-03T14:16:41;3.13;;;1.88;;
43337;SDS011;28933;52.492;13.434;2022-09-03T14:22:12;2.50;;;1.60;;
43337;SDS011;28933;52.492;13.434;2022-09-03T14:24:54;4.20;;;1.63;;
43337;SDS011;28933;52.492;13.434;2022-09-03T14:27:28;8.18;;;1.83;;
43337;SDS011;28933;52.492;13.434;2022-09-03T14:29:59;2.15;;;1.30;;
43337;SDS011;28933;52.492;13.434;2022-09-03T14:38:01;4.97;;;1.90;;
43337;SDS011;28933;52.492;13.434;2022-09-03T14:41:05;3.30;;;2.38;;
43337;SDS011;28933;52.492;13.434;2022-09-03T14:43:50;3.20;;;2.13;;
43337;SDS011;28933;52.492;13.434;2022-09-03T15:00:48;4.63;;;1.55;;
43337;SDS011;28933;52.492;13.434;2022-09-03T15:03:42;7.07;;;1.80;;
43337;SDS011;28933;52.492;13.434;2022-09-03T15:06:39;3.20;;;2.00;;
43337;SDS011;28933;52.492;13.434;2022-09-03T15:09:20;3.20;;;2.20;;
43337;SDS011;28933;52.492;13.434;2022-09-03T15:11:58;3.90;;;1.95;;
43337;SDS011;28933;52.492;13.434;2022-09-03T15:25:46;2.97;;;1.67;;
43337;SDS011;28933;52.492;13.434;2022-09-03T15:36:56;2.97;;;1.67;;
43337;SDS011;28933;52.492;13.434;2022-09-03T15:39:29;3.08;;;1.70;;
43337;SDS011;28933;52.492;13.434;2022-09-03T15:41:58;3.50;;;2.28;;
43337;SDS011;28933;52.492;13.434;2022-09-03T15:44:37;4.63;;;2.03;;
43337;SDS011;28933;52.492;13.434;2022-09-03T15:47:27;3.47;;;1.80;;
43337;SDS011;28933;52.492;13.434;2022-09-03T15:50:14;2.75;;;1.55;;
43337;SDS011;28933;52.492;13.434;2022-09-03T15:55:43;2.58;;;1.70;;
43337;SDS011;28933;52.492;13.434;2022-09-03T15:58:26;3.10;;;2.30;;
43337;SDS011;28933;52.492;13.434;2022-09-03T16:00:59;2.80;;;1.73;;
43337;SDS011;28933;52.492;13.434;2022-09-03T16:03:54;3.28;;;1.88;;
43337;SDS011;28933;52.492;13.434;2022-09-03T16:06:42;4.05;;;2.20;;
43337;SDS011;28933;52.492;13.434;2022-09-03T16:11:55;3.25;;;1.83;;
43337;SDS011;28933;52.492;13.434;2022-09-03T16:17:12;2.30;;;1.52;;
43337;SDS011;28933;52.492;13.434;2022-09-03T16:20:02;5.43;;;2.10;;
43337;SDS011;28933;52.492;13.434;2022-09-03T16:25:41;3.42;;;2.25;;
43337;SDS011;28933;52.492;13.434;2022-09-03T16:28:31;3.05;;;1.90;;
43337;SDS011;28933;52.492;13.434;2022-09-03T16:39:51;3.00;;;1.60;;
43337;SDS011;28933;52.492;13.434;2022-09-03T16:42:31;6.60;;;1.98;;
43337;SDS011;28933;52.492;13.434;2022-09-03T16:45:14;2.72;;;1.95;;
43337;SDS011;28933;52.492;13.434;2022-09-03T16:47:51;6.97;;;2.20;;
43337;SDS011;28933;52.492;13.434;2022-09-03T16:50:41;3.70;;;2.17;;
43337;SDS011;28933;52.492;13.434;2022-09-03T16:53:52;2.90;;;1.88;;
43337;SDS011;28933;52.492;13.434;2022-09-03T16:56:45;3.45;;;1.92;;
43337;SDS011;28933;52.492;13.434;2022-09-03T17:02:22;4.70;;;2.60;;
43337;SDS011;28933;52.492;13.434;2022-09-03T17:11:21;3.50;;;2.47;;
43337;SDS011;28933;52.492;13.434;2022-09-03T17:19:06;3.60;;;2.50;;
43337;SDS011;28933;52.492;13.434;2022-09-03T17:21:49;4.45;;;3.05;;
43337;SDS011;28933;52.492;13.434;2022-09-03T17:24:31;4.53;;;2.55;;
43337;SDS011;28933;52.492;13.434;2022-09-03T17:32:27;3.97;;;2.83;;
43337;SDS011;28933;52.492;13.434;2022-09-03T17:35:16;4.65;;;2.90;;
43337;SDS011;28933;52.492;13.434;2022-09-03T17:40:56;6.20;;;2.50;;
43337;SDS011;28933;52.492;13.434;2022-09-03T17:44:20;5.47;;;2.60;;
43337;SDS011;28933;52.492;13.434;2022-09-03T17:49:26;5.60;;;3.28;;
43337;SDS011;28933;52.492;13.434;2022-09-03T17:52:01;4.13;;;2.70;;
43337;SDS011;28933;52.492;13.434;2022-09-03T17:54:39;8.80;;;3.53;;
43337;SDS011;28933;52.492;13.434;2022-09-03T17:57:11;5.63;;;3.70;;
43337;SDS011;28933;52.492;13.434;2022-09-03T18:02:29;5.00;;;3.22;;
43337;SDS011;28933;52.492;13.434;2022-09-03T18:10:56;7.30;;;4.00;;
43337;SDS011;28933;52.492;13.434;2022-09-03T18:13:40;5.93;;;3.30;;
43337;SDS011;28933;52.492;13.434;2022-09-03T18:16:31;5.00;;;3.63;;
43337;SDS011;28933;52.492;13.434;2022-09-03T18:19:01;6.68;;;3.17;;
43337;SDS011;28933;52.492;13.434;2022-09-03T18:21:34;5.47;;;3.33;;
43337;SDS011;28933;52.492;13.434;2022-09-03T18:24:28;5.50;;;3.22;;
43337;SDS011;28933;52.492;13.434;2022-09-03T18:27:20;4.90;;;3.05;;
43337;SDS011;28933;52.492;13.434;2022-09-03T18:30:11;3.67;;;2.80;;
43337;SDS011;28933;52.492;13.434;2022-09-03T18:32:58;6.35;;;3.42;;
43337;SDS011;28933;52.492;13.434;2022-09-03T18:35:43;4.35;;;2.58;;
43337;SDS011;28933;52.492;13.434;2022-09-03T18:38:31;3.15;;;2.40;;
43337;SDS011;28933;52.492;13.434;2022-09-03T18:41:51;4.07;;;2.50;;
43337;SDS011;28933;52.492;13.434;2022-09-03T18:44:39;11.82;;;3.05;;
43337;SDS011;28933;52.492;13.434;2022-09-03T18:56:27;6.20;;;3.00;;
43337;SDS011;28933;52.492;13.434;2022-09-03T19:02:04;5.28;;;3.00;;
43337;SDS011;28933;52.492;13.434;2022-09-03T19:05:05;7.85;;;3.58;;
43337;SDS011;28933;52.492;13.434;2022-09-03T19:10:47;5.05;;;2.92;;
43337;SDS011;28933;52.492;13.434;2022-09-03T19:13:39;5.15;;;3.10;;
43337;SDS011;28933;52.492;13.434;2022-09-03T19:22:08;5.32;;;2.53;;
43337;SDS011;28933;52.492;13.434;2022-09-03T19:25:04;4.25;;;2.72;;
43337;SDS011;28933;52.492;13.434;2022-09-03T19:27:58;5.72;;;3.30;;
43337;SDS011;28933;52.492;13.434;2022-09-03T19:30:58;4.97;;;2.78;;
43337;SDS011;28933;52.492;13.434;2022-09-03T19:37:24;5.72;;;2.78;;
43337;SDS011;28933;52.492;13.434;2022-09-03T19:43:28;4.68;;;2.60;;
43337;SDS011;28933;52.492;13.434;2022-09-03T19:46:39;4.80;;;3.33;;
43337;SDS011;28933;52.492;13.434;2022-09-03T19:52:21;5.35;;;3.25;;
43337;SDS011;28933;52.492;13.434;2022-09-03T19:55:26;3.65;;;2.38;;
43337;SDS011;28933;52.492;13.434;2022-09-03T19:58:17;8.85;;;2.50;;
43337;SDS011;28933;52.492;13.434;2022-09-03T20:01:04;4.50;;;3.13;;
43337;SDS011;28933;52.492;13.434;2022-09-03T20:03:49;3.97;;;2.60;;
43337;SDS011;28933;52.492;13.434;2022-09-03T20:09:19;5.43;;;2.88;;
43337;SDS011;28933;52.492;13.434;2022-09-03T20:12:08;5.25;;;2.88;;
43337;SDS011;28933;52.492;13.434;2022-09-03T20:14:37;4.80;;;2.45;;